createdAt,value
2023-02-19T00:01:53.133Z,10.10
2023-02-19T00:04:22.808Z,10.20
2023-02-19T00:06:51.332Z,10.10
2023-02-19T00:09:20.492Z,10.10
2023-02-19T00:11:49.075Z,10.20
2023-02-19T00:14:18.409Z,10.20
2023-02-19T00:16:47.100Z,10.20
2023-02-19T00:19:17.985Z,10.20
2023-02-19T00:21:46.602Z,10.20
2023-02-19T00:24:15.709Z,10.30
2023-02-19T00:26:45.086Z,10.30
2023-02-19T00:29:14.920Z,10.30
2023-02-19T00:31:43.678Z,10.20
2023-02-19T00:34:12.738Z,10.30
2023-02-19T00:36:43.072Z,10.20
2023-02-19T00:39:14.144Z,10.20
2023-02-19T00:41:42.643Z,10.20
2023-02-19T00:44:11.940Z,10.20
2023-02-19T00:46:41.190Z,10.10
2023-02-19T00:49:10.183Z,10.10
2023-02-19T00:51:39.344Z,10.10
2023-02-19T00:54:09.160Z,10.10
2023-02-19T00:56:37.637Z,10.00
2023-02-19T00:59:06.109Z,10.00
2023-02-19T01:01:34.696Z,10.00
2023-02-19T01:04:06.198Z,9.90
2023-02-19T01:06:35.743Z,9.90
2023-02-19T01:09:04.832Z,9.90
2023-02-19T01:11:34.667Z,9.90
2023-02-19T01:14:03.689Z,9.90
2023-02-19T01:16:32.419Z,9.90
2023-02-19T01:19:00.897Z,9.80
2023-02-19T01:21:29.897Z,9.80
2023-02-19T01:23:59.069Z,9.80
2023-02-19T01:26:28.654Z,9.80
2023-02-19T01:28:58.528Z,9.80
2023-02-19T01:31:27.118Z,9.80
2023-02-19T01:33:56.257Z,9.80
2023-02-19T01:36:24.778Z,9.80
2023-02-19T01:38:53.252Z,9.80
2023-02-19T01:41:22.486Z,9.90
2023-02-19T01:43:59.412Z,10.00
2023-02-19T01:46:28.757Z,10.00
2023-02-19T01:48:59.283Z,10.00
2023-02-19T01:51:28.194Z,10.10
2023-02-19T01:53:58.586Z,10.10
2023-02-19T01:56:28.215Z,10.10
2023-02-19T01:58:58.226Z,10.10
2023-02-19T02:01:26.616Z,10.00
2023-02-19T02:03:55.265Z,10.00
2023-02-19T02:06:24.844Z,10.00
2023-02-19T02:09:12.091Z,10.00
2023-02-19T02:11:41.764Z,10.00
2023-02-19T02:14:11.590Z,10.00
2023-02-19T02:16:44.423Z,10.10
2023-02-19T02:19:20.087Z,10.00
2023-02-19T02:21:58.529Z,10.00
2023-02-19T02:24:48.562Z,10.00
2023-02-19T02:27:23.465Z,10.00
2023-02-19T02:30:04.169Z,10.00
2023-02-19T02:32:34.776Z,10.00
2023-02-19T02:35:06.893Z,9.90
2023-02-19T02:37:36.712Z,9.90
2023-02-19T02:40:06.018Z,9.90
2023-02-19T02:42:34.474Z,9.90
2023-02-19T02:45:35.245Z,9.80
2023-02-19T02:48:05.904Z,9.70
2023-02-19T02:50:35.813Z,9.70
2023-02-19T02:53:27.416Z,9.60
2023-02-19T02:55:56.026Z,9.60
2023-02-19T02:58:25.640Z,9.60
2023-02-19T03:01:15.187Z,9.50
2023-02-19T03:03:44.837Z,9.50
2023-02-19T03:06:15.474Z,9.50
2023-02-19T03:08:45.125Z,9.50
2023-02-19T03:11:31.251Z,9.50
2023-02-19T03:14:19.858Z,9.50
2023-02-19T03:17:08.051Z,9.50
2023-02-19T03:19:38.576Z,9.50
2023-02-19T03:22:10.288Z,9.50
2023-02-19T03:25:05.897Z,9.60
2023-02-19T03:27:35.509Z,9.60
2023-02-19T03:30:06.333Z,9.60
2023-02-19T03:32:38.340Z,9.60
2023-02-19T03:35:08.246Z,9.70
2023-02-19T03:37:39.156Z,9.70
2023-02-19T03:40:08.464Z,9.80
2023-02-19T03:42:39.867Z,9.80
2023-02-19T03:45:25.990Z,9.80
2023-02-19T03:47:59.413Z,9.80
2023-02-19T03:50:30.226Z,9.80
2023-02-19T03:53:03.212Z,9.80
2023-02-19T03:55:33.941Z,9.80
2023-02-19T03:58:06.097Z,9.70
2023-02-19T04:00:39.896Z,9.80
2023-02-19T04:03:12.870Z,9.80
2023-02-19T04:05:44.200Z,9.80
2023-02-19T04:08:15.326Z,9.80
2023-02-19T04:10:44.832Z,9.70
2023-02-19T04:13:16.471Z,9.80
2023-02-19T04:15:45.496Z,9.70
2023-02-19T04:18:17.291Z,9.80
2023-02-19T04:20:46.326Z,9.80
2023-02-19T04:23:15.935Z,9.70
2023-02-19T04:25:46.333Z,9.70
2023-02-19T04:28:16.574Z,9.70
2023-02-19T04:30:45.133Z,9.70
2023-02-19T04:33:13.659Z,9.70
2023-02-19T04:35:43.364Z,9.60
2023-02-19T04:38:12.347Z,9.60
2023-02-19T04:40:40.800Z,9.60
2023-02-19T04:43:09.439Z,9.60
2023-02-19T04:45:38.407Z,9.60
2023-02-19T04:48:06.849Z,9.50
2023-02-19T04:50:35.249Z,9.40
2023-02-19T04:53:05.018Z,9.30
2023-02-19T04:55:33.450Z,9.30
2023-02-19T04:58:01.798Z,9.30
2023-02-19T05:00:30.242Z,9.30
2023-02-19T05:02:58.666Z,9.30
2023-02-19T05:05:27.008Z,9.30
2023-02-19T05:07:55.444Z,9.30
2023-02-19T05:10:25.371Z,9.30
2023-02-19T05:12:54.168Z,9.30
2023-02-19T05:15:23.311Z,9.20
2023-02-19T05:17:51.713Z,9.20
2023-02-19T05:20:22.477Z,9.20
2023-02-19T05:22:50.925Z,9.30
2023-02-19T05:25:19.344Z,9.30
2023-02-19T05:27:49.106Z,9.40
2023-02-19T05:30:17.621Z,9.40
2023-02-19T05:32:46.037Z,9.40
2023-02-19T05:35:14.414Z,9.40
2023-02-19T05:37:42.824Z,9.40
2023-02-19T05:40:11.600Z,9.40
2023-02-19T05:42:39.946Z,9.40
2023-02-19T05:45:10.193Z,9.30
2023-02-19T05:47:38.625Z,9.30
2023-02-19T05:50:07.564Z,9.20
2023-02-19T05:52:36.013Z,9.20
2023-02-19T05:55:04.483Z,9.10
2023-02-19T05:57:32.917Z,9.10
2023-02-19T06:00:01.388Z,9.10
2023-02-19T06:02:31.271Z,9.00
2023-02-19T06:04:59.674Z,9.00
2023-02-19T06:07:28.144Z,9.00
2023-02-19T06:09:56.545Z,8.90
2023-02-19T06:12:25.015Z,9.00
2023-02-19T06:14:53.521Z,8.90
2023-02-19T06:17:22.071Z,8.90
2023-02-19T06:19:51.845Z,8.90
2023-02-19T06:22:20.255Z,8.90
2023-02-19T06:24:48.980Z,9.00
2023-02-19T06:27:17.490Z,9.00
2023-02-19T06:29:45.968Z,9.00
2023-02-19T06:32:14.519Z,9.00
2023-02-19T06:34:42.967Z,9.00
2023-02-19T06:37:12.800Z,9.00
2023-02-19T06:39:41.236Z,9.00
2023-02-19T06:42:09.646Z,8.90
2023-02-19T06:44:38.026Z,9.00
2023-02-19T06:47:06.511Z,9.00
2023-02-19T06:49:34.956Z,9.00
2023-02-19T06:52:03.778Z,9.00
2023-02-19T06:54:34.509Z,9.10
2023-02-19T06:57:03.371Z,9.10
2023-02-19T06:59:31.836Z,9.10
2023-02-19T07:02:00.248Z,9.10
2023-02-19T07:04:28.635Z,9.20
2023-02-19T07:06:57.096Z,9.20
2023-02-19T07:09:25.625Z,9.20
2023-02-19T07:11:55.403Z,9.30
2023-02-19T07:14:23.810Z,9.30
2023-02-19T07:16:52.268Z,9.30
2023-02-19T07:19:20.768Z,9.30
2023-02-19T07:21:49.281Z,9.40
2023-02-19T07:24:18.257Z,9.50
2023-02-19T07:26:46.683Z,9.50
2023-02-19T07:29:16.579Z,9.60
2023-02-19T07:31:45.146Z,9.60
2023-02-19T07:34:13.550Z,9.80
2023-02-19T07:36:41.933Z,9.80
2023-02-19T07:39:12.844Z,9.80
2023-02-19T07:41:41.236Z,9.90
2023-02-19T07:44:09.625Z,10.00
2023-02-19T07:46:39.446Z,10.00
2023-02-19T07:49:08.294Z,10.00
2023-02-19T07:51:36.707Z,10.10
2023-02-19T07:54:05.234Z,10.10
2023-02-19T07:56:33.591Z,10.20
2023-02-19T07:59:02.248Z,10.20
2023-02-19T08:01:44.489Z,10.30
2023-02-19T08:04:15.096Z,10.40
2023-02-19T08:06:43.585Z,10.50
2023-02-19T08:09:12.343Z,10.70
2023-02-19T08:11:57.891Z,10.90
2023-02-19T08:14:27.150Z,11.00
2023-02-19T08:16:55.837Z,11.20
2023-02-19T08:19:25.629Z,11.40
2023-02-19T08:21:54.684Z,11.60
2023-02-19T08:24:23.248Z,11.70
2023-02-19T08:26:51.692Z,11.80
2023-02-19T08:29:20.173Z,12.00
2023-02-19T08:31:48.933Z,12.10
2023-02-19T08:34:17.488Z,12.20
2023-02-19T08:36:47.371Z,12.30
2023-02-19T08:39:15.776Z,12.50
2023-02-19T08:41:44.110Z,12.60
2023-02-19T08:44:12.484Z,12.70
2023-02-19T08:46:40.847Z,12.80
2023-02-19T08:49:09.253Z,12.90
2023-02-19T08:51:37.680Z,12.90
2023-02-19T08:54:07.579Z,13.00
2023-02-19T08:56:36.016Z,13.30
2023-02-19T08:59:04.493Z,13.40
2023-02-19T09:01:32.967Z,13.60
2023-02-19T09:04:01.476Z,13.70
2023-02-19T09:06:29.986Z,13.90
2023-02-19T09:08:58.393Z,13.90
2023-02-19T09:11:28.239Z,13.90
2023-02-19T09:13:57.227Z,14.00
2023-02-19T09:16:25.650Z,14.00
2023-02-19T09:18:54.170Z,14.10
2023-02-19T09:21:22.549Z,14.10
2023-02-19T09:23:51.038Z,14.20
2023-02-19T09:26:19.488Z,14.20
2023-02-19T09:28:49.436Z,14.20
2023-02-19T09:31:17.939Z,14.20
2023-02-19T09:33:46.943Z,14.20
2023-02-19T09:36:16.225Z,14.20
2023-02-19T09:38:44.662Z,14.20
2023-02-19T09:41:18.157Z,14.10
2023-02-19T09:43:46.930Z,14.20
2023-02-19T09:46:23.796Z,14.20
2023-02-19T09:48:53.105Z,14.20
2023-02-19T09:51:21.942Z,14.20
2023-02-19T09:53:52.059Z,14.20
2023-02-19T09:56:20.542Z,14.30
2023-02-19T09:58:49.902Z,14.30
2023-02-19T10:01:18.888Z,14.30
2023-02-19T10:03:49.384Z,14.40
2023-02-19T10:06:20.651Z,14.40
2023-02-19T10:08:50.762Z,14.50
2023-02-19T10:11:19.711Z,14.50
2023-02-19T10:13:49.749Z,14.30
2023-02-19T10:16:20.614Z,14.10
2023-02-19T10:18:50.471Z,14.30
2023-02-19T10:21:20.202Z,14.10
2023-02-19T10:23:49.688Z,13.90
2023-02-19T10:26:18.274Z,13.80
2023-02-19T10:28:46.776Z,13.70
2023-02-19T10:31:20.143Z,13.60
2023-02-19T10:33:51.912Z,13.60
2023-02-19T10:36:29.846Z,13.70
2023-02-19T10:39:00.614Z,13.80
2023-02-19T10:41:29.505Z,13.80
2023-02-19T10:44:00.203Z,13.90
2023-02-19T10:46:29.925Z,13.90
2023-02-19T10:49:01.549Z,14.10
2023-02-19T10:51:34.180Z,14.10
2023-02-19T10:54:07.061Z,14.20
2023-02-19T10:56:37.572Z,14.10
2023-02-19T10:59:24.625Z,13.90
2023-02-19T11:01:57.460Z,13.70
2023-02-19T11:04:34.048Z,13.70
2023-02-19T11:07:09.316Z,13.70
2023-02-19T11:09:39.146Z,13.80
2023-02-19T11:12:09.538Z,13.80
2023-02-19T11:14:38.150Z,13.70
2023-02-19T11:17:06.733Z,13.70
2023-02-19T11:19:39.292Z,13.60
2023-02-19T11:22:19.934Z,13.70
2023-02-19T11:24:50.207Z,13.70
2023-02-19T11:27:20.751Z,13.50
2023-02-19T11:29:49.173Z,13.50
2023-02-19T11:32:28.023Z,13.60
2023-02-19T11:35:17.802Z,13.60
2023-02-19T11:37:56.912Z,13.40
2023-02-19T11:40:31.241Z,13.30
2023-02-19T11:43:03.952Z,13.20
2023-02-19T11:45:36.965Z,13.20
2023-02-19T11:48:14.510Z,13.30
2023-02-19T11:50:51.650Z,13.40
2023-02-19T11:53:25.799Z,13.40
2023-02-19T11:56:00.250Z,13.60
2023-02-19T11:58:38.298Z,13.60
2023-02-19T12:01:12.125Z,13.70
2023-02-19T12:03:51.110Z,13.60
2023-02-19T12:06:24.986Z,13.60
2023-02-19T12:09:04.225Z,13.50
2023-02-19T12:11:42.888Z,13.50
2023-02-19T12:14:23.634Z,13.50
2023-02-19T12:16:55.570Z,13.70
2023-02-19T12:19:44.604Z,13.80
2023-02-19T12:22:27.211Z,13.80
2023-02-19T12:25:14.158Z,13.90
2023-02-19T12:27:48.452Z,13.80
2023-02-19T12:30:31.887Z,13.90
2023-02-19T12:33:06.562Z,13.90
2023-02-19T12:35:41.290Z,14.10
2023-02-19T12:38:16.029Z,14.10
2023-02-19T12:40:51.297Z,14.10
2023-02-19T12:43:20.327Z,14.00
2023-02-19T12:45:52.510Z,13.90
2023-02-19T12:48:26.292Z,13.90
2023-02-19T12:50:58.201Z,14.00
2023-02-19T12:53:34.142Z,14.00
2023-02-19T12:56:06.415Z,13.90
2023-02-19T12:58:38.745Z,13.80
2023-02-19T13:01:08.554Z,13.80
2023-02-19T13:03:40.579Z,13.70
2023-02-19T13:06:13.550Z,13.80
2023-02-19T13:08:57.846Z,13.90
2023-02-19T13:11:36.705Z,13.90
2023-02-19T13:14:07.453Z,13.80
2023-02-19T13:16:39.706Z,13.80
2023-02-19T13:19:08.207Z,13.90
2023-02-19T13:22:00.528Z,13.80
2023-02-19T13:24:31.948Z,13.70
2023-02-19T13:27:11.532Z,13.70
2023-02-19T13:29:47.248Z,13.70
2023-02-19T13:32:33.204Z,13.80
2023-02-19T13:35:11.621Z,13.70
2023-02-19T13:37:40.475Z,13.70
2023-02-19T13:40:20.639Z,13.70
2023-02-19T13:42:53.477Z,13.70
2023-02-19T13:45:23.560Z,13.70
2023-02-19T13:48:00.477Z,13.70
2023-02-19T13:50:29.945Z,13.80
2023-02-19T13:52:58.915Z,13.90
2023-02-19T13:55:47.271Z,13.90
2023-02-19T13:58:33.963Z,13.80
2023-02-19T14:01:04.524Z,13.70
2023-02-19T14:03:41.375Z,13.70
2023-02-19T14:06:10.587Z,13.70
2023-02-19T14:08:49.067Z,13.70
2023-02-19T14:11:17.618Z,13.70
2023-02-19T14:14:11.095Z,13.80
2023-02-19T14:16:54.328Z,13.80
2023-02-19T14:19:41.196Z,13.80
2023-02-19T14:22:24.473Z,13.90
2023-02-19T14:24:55.144Z,14.00
2023-02-19T14:27:23.700Z,13.90
2023-02-19T14:29:52.944Z,13.90
2023-02-19T14:32:21.554Z,13.80
2023-02-19T14:34:49.995Z,13.70
2023-02-19T14:37:20.256Z,13.70
2023-02-19T14:39:48.858Z,13.70
2023-02-19T14:42:21.203Z,13.70
2023-02-19T14:44:51.456Z,13.80
2023-02-19T14:47:21.257Z,13.80
2023-02-19T14:49:51.139Z,13.80
2023-02-19T14:52:21.783Z,13.90
2023-02-19T14:54:52.035Z,13.90
2023-02-19T14:57:24.328Z,13.80
2023-02-19T14:59:54.327Z,13.80
2023-02-19T15:02:24.081Z,13.80
2023-02-19T15:04:52.813Z,13.70
2023-02-19T15:07:23.439Z,13.70
2023-02-19T15:09:52.701Z,13.70
2023-02-19T15:12:23.726Z,13.70
2023-02-19T15:14:54.220Z,13.70
2023-02-19T15:17:26.099Z,13.80
2023-02-19T15:19:55.707Z,13.80
2023-02-19T15:22:25.677Z,13.90
2023-02-19T15:24:54.062Z,13.90
2023-02-19T15:27:24.919Z,13.90
2023-02-19T15:29:53.934Z,13.90
2023-02-19T15:32:23.130Z,14.00
2023-02-19T15:34:55.092Z,13.90
2023-02-19T15:37:24.566Z,13.90
2023-02-19T15:39:54.303Z,13.90
2023-02-19T15:42:25.354Z,13.90
2023-02-19T15:44:57.079Z,13.80
2023-02-19T15:47:29.401Z,13.80
2023-02-19T15:50:00.307Z,13.80
2023-02-19T15:52:31.668Z,13.80
2023-02-19T15:55:03.946Z,13.70
2023-02-19T15:57:36.948Z,13.60
2023-02-19T16:00:07.807Z,13.70
2023-02-19T16:02:37.173Z,13.60
2023-02-19T16:05:12.606Z,13.50
2023-02-19T16:07:42.104Z,13.50
2023-02-19T16:10:30.857Z,13.50
2023-02-19T16:13:01.982Z,13.40
2023-02-19T16:15:31.095Z,13.20
2023-02-19T16:17:59.865Z,13.20
2023-02-19T16:20:29.625Z,13.10
2023-02-19T16:22:59.788Z,13.10
2023-02-19T16:25:30.913Z,13.10
2023-02-19T16:28:00.829Z,13.10
2023-02-19T16:30:33.941Z,13.10
2023-02-19T16:33:21.336Z,13.10
2023-02-19T16:35:52.476Z,13.00
2023-02-19T16:38:21.615Z,12.90
2023-02-19T16:40:58.655Z,12.90
2023-02-19T16:43:31.341Z,12.90
2023-02-19T16:46:00.839Z,12.80
2023-02-19T16:48:29.516Z,12.70
2023-02-19T16:50:57.946Z,12.70
2023-02-19T16:53:26.501Z,12.60
2023-02-19T16:55:54.961Z,12.60
2023-02-19T16:58:23.397Z,12.60
2023-02-19T17:00:53.431Z,12.60
2023-02-19T17:03:23.497Z,12.50
2023-02-19T17:05:52.022Z,12.50
2023-02-19T17:08:37.996Z,12.50
2023-02-19T17:11:07.198Z,12.50
2023-02-19T17:13:35.563Z,12.50
2023-02-19T17:16:05.691Z,12.40
2023-02-19T17:18:34.273Z,12.40
2023-02-19T17:21:06.377Z,12.40
2023-02-19T17:23:34.799Z,12.40
2023-02-19T17:26:03.419Z,12.40
2023-02-19T17:28:31.804Z,12.40
2023-02-19T17:31:00.259Z,12.40
2023-02-19T17:33:30.107Z,12.30
2023-02-19T17:35:58.557Z,12.40
2023-02-19T17:38:26.929Z,12.40
2023-02-19T17:40:55.336Z,12.40
2023-02-19T17:43:25.419Z,12.40
2023-02-19T17:45:53.990Z,12.40
2023-02-19T17:48:22.482Z,12.40
2023-02-19T17:50:52.335Z,12.40
2023-02-19T17:53:20.800Z,12.40
2023-02-19T17:55:49.234Z,12.30
2023-02-19T17:58:20.488Z,12.30
2023-02-19T18:00:48.892Z,12.30
2023-02-19T18:03:17.316Z,12.30
2023-02-19T18:05:45.706Z,12.30
2023-02-19T18:08:15.544Z,12.30
2023-02-19T18:10:43.960Z,12.30
2023-02-19T18:13:12.458Z,12.30
2023-02-19T18:15:40.843Z,12.30
2023-02-19T18:18:09.873Z,12.30
2023-02-19T18:20:38.318Z,12.20
2023-02-19T18:23:06.774Z,12.20
2023-02-19T18:25:36.574Z,12.10
2023-02-19T18:28:05.309Z,12.10
2023-02-19T18:30:33.833Z,12.10
2023-02-19T18:33:02.390Z,12.10
2023-02-19T18:35:30.858Z,12.10
2023-02-19T18:37:59.265Z,12.10
2023-02-19T18:40:28.544Z,12.10
2023-02-19T18:42:58.882Z,12.00
2023-02-19T18:45:27.675Z,12.10
2023-02-19T18:47:56.225Z,12.10
2023-02-19T18:50:24.666Z,12.10
2023-02-19T18:52:53.244Z,12.10
2023-02-19T18:55:21.603Z,12.10
2023-02-19T18:57:50.200Z,12.10
2023-02-19T19:00:21.236Z,12.10
2023-02-19T19:02:51.108Z,12.00
2023-02-19T19:05:22.844Z,12.00
2023-02-19T19:07:51.968Z,12.00
2023-02-19T19:10:20.601Z,12.00
2023-02-19T19:12:49.229Z,12.00
2023-02-19T19:15:18.645Z,12.00
2023-02-19T19:17:49.496Z,12.00
2023-02-19T19:20:18.195Z,12.00
2023-02-19T19:22:46.617Z,12.00
2023-02-19T19:25:15.357Z,12.00
2023-02-19T19:27:43.754Z,11.90
2023-02-19T19:30:12.810Z,11.90
2023-02-19T19:32:41.497Z,11.90
2023-02-19T19:35:11.988Z,11.90
2023-02-19T19:37:40.351Z,11.90
2023-02-19T19:40:09.554Z,11.90
2023-02-19T19:42:37.988Z,11.90
2023-02-19T19:45:06.927Z,11.90
2023-02-19T19:47:35.326Z,11.90
2023-02-19T19:50:03.742Z,11.90
2023-02-19T19:52:33.621Z,11.90
2023-02-19T19:55:02.165Z,11.90
2023-02-19T19:57:30.563Z,11.90
2023-02-19T19:59:58.998Z,11.90
2023-02-19T20:02:27.432Z,11.90
2023-02-19T20:04:55.841Z,11.80
2023-02-19T20:07:24.288Z,11.80
2023-02-19T20:09:54.189Z,11.80
2023-02-19T20:12:22.580Z,11.70
2023-02-19T20:14:50.981Z,11.70
2023-02-19T20:17:19.470Z,11.70
2023-02-19T20:19:47.929Z,11.70
2023-02-19T20:22:16.314Z,11.60
2023-02-19T20:24:44.714Z,11.70
2023-02-19T20:27:14.556Z,11.70
2023-02-19T20:29:44.631Z,11.70
2023-02-19T20:32:13.694Z,11.70
2023-02-19T20:34:42.302Z,11.70
2023-02-19T20:37:10.780Z,11.70
2023-02-19T20:39:39.263Z,11.70
2023-02-19T20:42:07.832Z,11.70
2023-02-19T20:44:37.645Z,11.60
2023-02-19T20:47:06.261Z,11.60
2023-02-19T20:49:35.182Z,11.60
2023-02-19T20:52:06.332Z,11.60
2023-02-19T20:54:38.360Z,11.60
2023-02-19T20:57:07.039Z,11.50
2023-02-19T20:59:36.079Z,11.50
2023-02-19T21:02:06.648Z,11.60
2023-02-19T21:04:35.367Z,11.50
2023-02-19T21:07:03.741Z,11.50
2023-02-19T21:09:32.271Z,11.50
2023-02-19T21:12:00.896Z,11.50
2023-02-19T21:14:29.288Z,11.50
2023-02-19T21:16:57.822Z,11.50
2023-02-19T21:19:27.570Z,11.50
2023-02-19T21:21:56.015Z,11.50
2023-02-19T21:24:24.497Z,11.50
2023-02-19T21:26:52.942Z,11.60
2023-02-19T21:29:22.239Z,11.50
2023-02-19T21:31:51.783Z,11.50
2023-02-19T21:34:21.771Z,11.50
2023-02-19T21:36:51.885Z,11.50
2023-02-19T21:39:21.903Z,11.50
2023-02-19T21:41:50.643Z,11.50
2023-02-19T21:44:21.143Z,11.50
2023-02-19T21:46:49.689Z,11.50
2023-02-19T21:49:18.489Z,11.60
2023-02-19T21:51:48.630Z,11.50
2023-02-19T21:54:19.334Z,11.50
2023-02-19T21:56:48.685Z,11.50
2023-02-19T21:59:17.129Z,11.50
2023-02-19T22:01:45.513Z,11.50
2023-02-19T22:04:15.157Z,11.50
2023-02-19T22:06:43.807Z,11.40
2023-02-19T22:09:12.854Z,11.40
2023-02-19T22:11:42.985Z,11.50
2023-02-19T22:14:11.516Z,11.40
2023-02-19T22:16:42.711Z,11.40
2023-02-19T22:19:12.057Z,11.40
2023-02-19T22:21:43.222Z,11.50
2023-02-19T22:24:15.967Z,11.40
2023-02-19T22:26:46.154Z,11.40
2023-02-19T22:29:15.480Z,11.50
2023-02-19T22:31:44.165Z,11.50
2023-02-19T22:34:12.610Z,11.40
2023-02-19T22:36:40.960Z,11.40
2023-02-19T22:39:11.841Z,11.40
2023-02-19T22:41:42.973Z,11.40
2023-02-19T22:44:12.736Z,11.40
2023-02-19T22:46:41.150Z,11.40
2023-02-19T22:49:09.548Z,11.40
2023-02-19T22:51:37.956Z,11.40
2023-02-19T22:54:06.568Z,11.40
2023-02-19T22:56:34.939Z,11.40
2023-02-19T22:59:03.388Z,11.40
2023-02-19T23:01:33.138Z,11.40
2023-02-19T23:04:01.711Z,11.40
2023-02-19T23:06:30.983Z,11.50
2023-02-19T23:09:01.984Z,11.40
2023-02-19T23:11:31.421Z,11.40
2023-02-19T23:14:00.235Z,11.40
2023-02-19T23:16:29.195Z,11.40
2023-02-19T23:18:59.032Z,11.30
2023-02-19T23:21:27.427Z,11.30
2023-02-19T23:23:55.899Z,11.20
2023-02-19T23:26:24.352Z,11.30
2023-02-19T23:28:52.770Z,11.30
2023-02-19T23:31:21.432Z,11.30
2023-02-19T23:33:49.957Z,11.30
2023-02-19T23:36:19.752Z,11.40
2023-02-19T23:38:48.550Z,11.40
2023-02-19T23:41:17.676Z,11.40
2023-02-19T23:43:46.341Z,11.40
2023-02-19T23:46:17.355Z,11.40
2023-02-19T23:48:46.435Z,11.30
2023-02-19T23:51:14.891Z,11.20
2023-02-19T23:53:44.740Z,11.20
2023-02-19T23:56:13.354Z,11.10
2023-02-19T23:58:42.056Z,11.10
